sensor_id;sensor_type;location;lat;lon;timestamp;pressure;altitude;pressure_sealevel;temperature;humidity
12219;BME280;6172;42.646;23.344;2023-04-30T00:00:06;94274.72;;;9.67;100.00
12219;BME280;6172;42.646;23.344;2023-04-30T00:02:34;94280.88;;;9.71;100.00
12219;BME280;6172;42.646;23.344;2023-04-30T00:05:01;94284.88;;;9.43;100.00
12219;BME280;6172;42.646;23.344;2023-04-30T00:07:27;94282.47;;;9.26;100.00
12219;BME280;6172;42.646;23.344;2023-04-30T00:09:54;94280.56;;;9.23;100.00
12219;BME280;6172;42.646;23.344;2023-04-30T00:12:23;94286.00;;;9.00;100.00
12219;BME280;6172;42.646;23.344;2023-04-30T00:14:49;94282.72;;;8.85;100.00
12219;BME280;6172;42.646;23.344;2023-04-30T00:17:17;94273.44;;;8.60;100.00
12219;BME280;6172;42.646;23.344;2023-04-30T00:19:43;94286.22;;;8.59;100.00
12219;BME280;6172;42.646;23.344;2023-04-30T00:22:10;94286.72;;;8.54;100.00
12219;BME280;6172;42.646;23.344;2023-04-30T00:24:37;94286.03;;;8.47;100.00
12219;BME280;6172;42.646;23.344;2023-04-30T00:27:03;94276.75;;;8.44;100.00
12219;BME280;6172;42.646;23.344;2023-04-30T00:29:32;94285.94;;;8.54;100.00
12219;BME280;6172;42.646;23.344;2023-04-30T00:31:58;94277.06;;;8.50;100.00
12219;BME280;6172;42.646;23.344;2023-04-30T00:34:25;94280.97;;;8.49;100.00
12219;BME280;6172;42.646;23.344;2023-04-30T00:36:52;94284.69;;;8.58;100.00
12219;BME280;6172;42.646;23.344;2023-04-30T00:39:19;94277.53;;;8.45;100.00
12219;BME280;6172;42.646;23.344;2023-04-30T00:41:45;94287.25;;;8.42;100.00
12219;BME280;6172;42.646;23.344;2023-04-30T00:44:12;94288.75;;;8.47;100.00
12219;BME280;6172;42.646;23.344;2023-04-30T00:46:40;94279.19;;;8.39;100.00
12219;BME280;6172;42.646;23.344;2023-04-30T00:49:07;94275.94;;;8.47;100.00
12219;BME280;6172;42.646;23.344;2023-04-30T00:51:34;94270.78;;;8.56;100.00
12219;BME280;6172;42.646;23.344;2023-04-30T00:54:02;94278.09;;;8.59;100.00
12219;BME280;6172;42.646;23.344;2023-04-30T00:56:30;94276.22;;;8.56;100.00
12219;BME280;6172;42.646;23.344;2023-04-30T00:58:57;94275.78;;;8.58;100.00
12219;BME280;6172;42.646;23.344;2023-04-30T01:01:25;94274.50;;;8.39;100.00
12219;BME280;6172;42.646;23.344;2023-04-30T01:03:54;94282.53;;;8.16;100.00
12219;BME280;6172;42.646;23.344;2023-04-30T01:06:21;94280.59;;;7.86;100.00
12219;BME280;6172;42.646;23.344;2023-04-30T01:08:48;94277.16;;;7.82;100.00
12219;BME280;6172;42.646;23.344;2023-04-30T01:11:20;94269.94;;;7.69;100.00
12219;BME280;6172;42.646;23.344;2023-04-30T01:13:58;94272.75;;;7.58;100.00
12219;BME280;6172;42.646;23.344;2023-04-30T01:16:34;94266.25;;;7.52;100.00
12219;BME280;6172;42.646;23.344;2023-04-30T01:19:08;94266.78;;;7.40;100.00
12219;BME280;6172;42.646;23.344;2023-04-30T01:21:38;94289.41;;;7.60;100.00
12219;BME280;6172;42.646;23.344;2023-04-30T01:24:28;94286.19;;;7.35;100.00
12219;BME280;6172;42.646;23.344;2023-04-30T01:27:12;94282.50;;;7.15;100.00
12219;BME280;6172;42.646;23.344;2023-04-30T01:29:46;94282.41;;;7.26;100.00
12219;BME280;6172;42.646;23.344;2023-04-30T01:32:13;94289.00;;;7.25;100.00
12219;BME280;6172;42.646;23.344;2023-04-30T01:34:40;94282.78;;;7.28;100.00
12219;BME280;6172;42.646;23.344;2023-04-30T01:37:15;94284.47;;;7.11;100.00
12219;BME280;6172;42.646;23.344;2023-04-30T01:39:57;94272.53;;;7.05;100.00
12219;BME280;6172;42.646;23.344;2023-04-30T01:42:34;94281.63;;;7.25;100.00
12219;BME280;6172;42.646;23.344;2023-04-30T01:45:22;94279.34;;;7.24;100.00
12219;BME280;6172;42.646;23.344;2023-04-30T01:48:02;94284.16;;;7.43;100.00
12219;BME280;6172;42.646;23.344;2023-04-30T01:50:37;94282.97;;;7.47;100.00
12219;BME280;6172;42.646;23.344;2023-04-30T01:53:10;94280.69;;;7.42;100.00
12219;BME280;6172;42.646;23.344;2023-04-30T01:55:42;94276.81;;;7.43;100.00
12219;BME280;6172;42.646;23.344;2023-04-30T01:58:12;94276.88;;;7.36;100.00
12219;BME280;6172;42.646;23.344;2023-04-30T02:00:40;94285.75;;;7.40;100.00
12219;BME280;6172;42.646;23.344;2023-04-30T02:03:07;94279.03;;;7.52;100.00
12219;BME280;6172;42.646;23.344;2023-04-30T02:05:34;94280.97;;;7.51;100.00
12219;BME280;6172;42.646;23.344;2023-04-30T02:08:00;94280.47;;;7.63;100.00
12219;BME280;6172;42.646;23.344;2023-04-30T02:10:28;94277.72;;;7.67;100.00
12219;BME280;6172;42.646;23.344;2023-04-30T02:12:55;94277.31;;;7.68;100.00
12219;BME280;6172;42.646;23.344;2023-04-30T02:15:22;94271.75;;;7.79;100.00
12219;BME280;6172;42.646;23.344;2023-04-30T02:17:50;94267.84;;;7.83;100.00
12219;BME280;6172;42.646;23.344;2023-04-30T02:20:17;94272.81;;;7.88;100.00
12219;BME280;6172;42.646;23.344;2023-04-30T02:22:44;94285.56;;;7.91;100.00
12219;BME280;6172;42.646;23.344;2023-04-30T02:25:10;94271.31;;;7.84;100.00
12219;BME280;6172;42.646;23.344;2023-04-30T02:27:38;94279.81;;;7.86;100.00
12219;BME280;6172;42.646;23.344;2023-04-30T02:30:06;94276.69;;;7.87;100.00
12219;BME280;6172;42.646;23.344;2023-04-30T02:32:33;94274.94;;;7.74;100.00
12219;BME280;6172;42.646;23.344;2023-04-30T02:35:01;94273.06;;;7.67;100.00
12219;BME280;6172;42.646;23.344;2023-04-30T02:37:28;94276.44;;;7.78;100.00
12219;BME280;6172;42.646;23.344;2023-04-30T02:39:56;94272.34;;;7.63;100.00
12219;BME280;6172;42.646;23.344;2023-04-30T02:42:22;94273.63;;;7.52;100.00
12219;BME280;6172;42.646;23.344;2023-04-30T02:44:49;94273.66;;;7.48;100.00
12219;BME280;6172;42.646;23.344;2023-04-30T02:47:16;94282.16;;;7.50;100.00
12219;BME280;6172;42.646;23.344;2023-04-30T02:49:43;94273.69;;;7.45;100.00
12219;BME280;6172;42.646;23.344;2023-04-30T02:52:11;94281.94;;;7.34;100.00
12219;BME280;6172;42.646;23.344;2023-04-30T02:54:38;94286.63;;;7.30;100.00
12219;BME280;6172;42.646;23.344;2023-04-30T02:57:05;94289.19;;;7.44;100.00
12219;BME280;6172;42.646;23.344;2023-04-30T02:59:32;94285.75;;;7.40;100.00
12219;BME280;6172;42.646;23.344;2023-04-30T03:01:59;94289.34;;;7.30;100.00
12219;BME280;6172;42.646;23.344;2023-04-30T03:04:25;94299.38;;;7.33;100.00
12219;BME280;6172;42.646;23.344;2023-04-30T03:06:52;94293.50;;;7.38;100.00
12219;BME280;6172;42.646;23.344;2023-04-30T03:09:21;94295.59;;;7.24;100.00
12219;BME280;6172;42.646;23.344;2023-04-30T03:11:48;94295.78;;;7.03;100.00
12219;BME280;6172;42.646;23.344;2023-04-30T03:14:14;94299.78;;;6.88;100.00
12219;BME280;6172;42.646;23.344;2023-04-30T03:16:41;94312.31;;;7.15;100.00
12219;BME280;6172;42.646;23.344;2023-04-30T03:19:08;94306.44;;;7.24;100.00
12219;BME280;6172;42.646;23.344;2023-04-30T03:21:36;94300.19;;;7.30;100.00
12219;BME280;6172;42.646;23.344;2023-04-30T03:24:02;94315.16;;;7.42;100.00
12219;BME280;6172;42.646;23.344;2023-04-30T03:26:31;94309.78;;;7.38;100.00
12219;BME280;6172;42.646;23.344;2023-04-30T03:28:58;94304.34;;;7.38;100.00
12219;BME280;6172;42.646;23.344;2023-04-30T03:31:25;94306.31;;;7.34;100.00
12219;BME280;6172;42.646;23.344;2023-04-30T03:33:52;94303.63;;;7.34;100.00
12219;BME280;6172;42.646;23.344;2023-04-30T03:36:19;94305.75;;;7.53;100.00
12219;BME280;6172;42.646;23.344;2023-04-30T03:38:49;94300.88;;;7.38;100.00
12219;BME280;6172;42.646;23.344;2023-04-30T03:41:17;94306.94;;;7.52;100.00
12219;BME280;6172;42.646;23.344;2023-04-30T03:43:45;94313.81;;;7.60;100.00
12219;BME280;6172;42.646;23.344;2023-04-30T03:46:12;94324.66;;;7.60;100.00
12219;BME280;6172;42.646;23.344;2023-04-30T03:48:39;94320.84;;;7.54;100.00
12219;BME280;6172;42.646;23.344;2023-04-30T03:51:05;94325.47;;;7.57;100.00
12219;BME280;6172;42.646;23.344;2023-04-30T03:53:33;94333.50;;;7.68;100.00
12219;BME280;6172;42.646;23.344;2023-04-30T03:56:01;94327.22;;;7.74;100.00
12219;BME280;6172;42.646;23.344;2023-04-30T03:58:28;94327.69;;;7.69;100.00
12219;BME280;6172;42.646;23.344;2023-04-30T04:00:56;94333.03;;;7.76;100.00
12219;BME280;6172;42.646;23.344;2023-04-30T04:03:23;94332.94;;;7.83;100.00
12219;BME280;6172;42.646;23.344;2023-04-30T04:05:50;94319.75;;;7.85;100.00
12219;BME280;6172;42.646;23.344;2023-04-30T04:08:17;94330.53;;;7.92;100.00
12219;BME280;6172;42.646;23.344;2023-04-30T04:10:43;94328.91;;;7.98;100.00
12219;BME280;6172;42.646;23.344;2023-04-30T04:13:10;94330.06;;;7.97;100.00
12219;BME280;6172;42.646;23.344;2023-04-30T04:15:37;94333.53;;;8.01;100.00
12219;BME280;6172;42.646;23.344;2023-04-30T04:18:05;94335.50;;;7.97;100.00
12219;BME280;6172;42.646;23.344;2023-04-30T04:20:33;94334.88;;;8.17;100.00
12219;BME280;6172;42.646;23.344;2023-04-30T04:22:59;94335.56;;;8.24;100.00
12219;BME280;6172;42.646;23.344;2023-04-30T04:25:26;94337.78;;;8.33;100.00
12219;BME280;6172;42.646;23.344;2023-04-30T04:27:53;94344.75;;;8.37;100.00
12219;BME280;6172;42.646;23.344;2023-04-30T04:30:20;94338.53;;;8.37;100.00
12219;BME280;6172;42.646;23.344;2023-04-30T04:32:47;94338.72;;;8.19;100.00
12219;BME280;6172;42.646;23.344;2023-04-30T04:35:19;94348.69;;;8.29;100.00
12219;BME280;6172;42.646;23.344;2023-04-30T04:37:47;94340.31;;;8.50;100.00
12219;BME280;6172;42.646;23.344;2023-04-30T04:40:13;94339.44;;;8.57;100.00
12219;BME280;6172;42.646;23.344;2023-04-30T04:42:40;94352.06;;;8.70;100.00
12219;BME280;6172;42.646;23.344;2023-04-30T04:45:08;94352.03;;;8.97;100.00
12219;BME280;6172;42.646;23.344;2023-04-30T04:47:35;94351.31;;;8.96;100.00
12219;BME280;6172;42.646;23.344;2023-04-30T04:50:02;94347.09;;;8.92;100.00
12219;BME280;6172;42.646;23.344;2023-04-30T04:52:30;94354.88;;;8.90;100.00
12219;BME280;6172;42.646;23.344;2023-04-30T04:54:57;94353.69;;;8.91;100.00
12219;BME280;6172;42.646;23.344;2023-04-30T04:57:24;94353.78;;;9.10;100.00
12219;BME280;6172;42.646;23.344;2023-04-30T04:59:51;94367.56;;;9.23;100.00
12219;BME280;6172;42.646;23.344;2023-04-30T05:02:18;94357.03;;;9.02;100.00
12219;BME280;6172;42.646;23.344;2023-04-30T05:04:45;94362.78;;;9.07;100.00
12219;BME280;6172;42.646;23.344;2023-04-30T05:07:15;94362.63;;;8.91;100.00
12219;BME280;6172;42.646;23.344;2023-04-30T05:09:43;94366.13;;;8.92;100.00
12219;BME280;6172;42.646;23.344;2023-04-30T05:12:11;94364.81;;;9.00;100.00
12219;BME280;6172;42.646;23.344;2023-04-30T05:14:37;94364.38;;;9.05;100.00
12219;BME280;6172;42.646;23.344;2023-04-30T05:17:05;94365.38;;;9.14;100.00
12219;BME280;6172;42.646;23.344;2023-04-30T05:19:32;94357.97;;;8.92;100.00
12219;BME280;6172;42.646;23.344;2023-04-30T05:21:59;94357.50;;;8.97;100.00
12219;BME280;6172;42.646;23.344;2023-04-30T05:24:27;94362.25;;;8.89;100.00
12219;BME280;6172;42.646;23.344;2023-04-30T05:26:55;94367.81;;;9.09;100.00
12219;BME280;6172;42.646;23.344;2023-04-30T05:29:22;94365.09;;;9.32;100.00
12219;BME280;6172;42.646;23.344;2023-04-30T05:31:49;94361.72;;;9.24;100.00
12219;BME280;6172;42.646;23.344;2023-04-30T05:34:16;94364.44;;;9.24;100.00
12219;BME280;6172;42.646;23.344;2023-04-30T05:36:43;94369.19;;;9.20;100.00
12219;BME280;6172;42.646;23.344;2023-04-30T05:39:10;94362.50;;;9.25;100.00
12219;BME280;6172;42.646;23.344;2023-04-30T05:41:36;94370.72;;;9.44;100.00
12219;BME280;6172;42.646;23.344;2023-04-30T05:44:05;94376.09;;;9.25;100.00
12219;BME280;6172;42.646;23.344;2023-04-30T05:46:32;94364.63;;;9.37;100.00
12219;BME280;6172;42.646;23.344;2023-04-30T05:48:59;94363.75;;;9.43;100.00
12219;BME280;6172;42.646;23.344;2023-04-30T05:51:26;94362.72;;;9.34;100.00
12219;BME280;6172;42.646;23.344;2023-04-30T05:53:53;94360.13;;;9.27;100.00
12219;BME280;6172;42.646;23.344;2023-04-30T05:56:21;94366.75;;;9.26;100.00
12219;BME280;6172;42.646;23.344;2023-04-30T05:58:49;94362.72;;;9.34;100.00
12219;BME280;6172;42.646;23.344;2023-04-30T06:01:18;94368.91;;;9.38;100.00
12219;BME280;6172;42.646;23.344;2023-04-30T06:03:45;94366.75;;;9.26;100.00
12219;BME280;6172;42.646;23.344;2023-04-30T06:06:12;94373.81;;;9.46;100.00
12219;BME280;6172;42.646;23.344;2023-04-30T06:08:39;94373.63;;;9.57;100.00
12219;BME280;6172;42.646;23.344;2023-04-30T06:11:10;94377.22;;;9.50;100.00
12219;BME280;6172;42.646;23.344;2023-04-30T06:13:37;94369.66;;;9.38;100.00
12219;BME280;6172;42.646;23.344;2023-04-30T06:16:05;94373.31;;;9.74;100.00
12219;BME280;6172;42.646;23.344;2023-04-30T06:18:34;94372.06;;;10.02;100.00
12219;BME280;6172;42.646;23.344;2023-04-30T06:21:01;94372.13;;;9.98;100.00
12219;BME280;6172;42.646;23.344;2023-04-30T06:23:27;94370.78;;;9.87;100.00
12219;BME280;6172;42.646;23.344;2023-04-30T06:25:54;94376.00;;;10.40;100.00
12219;BME280;6172;42.646;23.344;2023-04-30T06:28:21;94371.25;;;10.44;100.00
12219;BME280;6172;42.646;23.344;2023-04-30T06:30:48;94374.06;;;10.76;100.00
12219;BME280;6172;42.646;23.344;2023-04-30T06:33:16;94364.41;;;10.91;100.00
12219;BME280;6172;42.646;23.344;2023-04-30T06:35:44;94369.97;;;10.68;100.00
12219;BME280;6172;42.646;23.344;2023-04-30T06:38:12;94353.31;;;10.82;100.00
12219;BME280;6172;42.646;23.344;2023-04-30T06:40:38;94374.38;;;10.82;100.00
12219;BME280;6172;42.646;23.344;2023-04-30T06:43:05;94372.16;;;10.93;100.00
12219;BME280;6172;42.646;23.344;2023-04-30T06:45:32;94371.69;;;11.14;100.00
12219;BME280;6172;42.646;23.344;2023-04-30T06:47:59;94377.53;;;11.64;100.00
12219;BME280;6172;42.646;23.344;2023-04-30T06:50:26;94373.97;;;11.95;100.00
12219;BME280;6172;42.646;23.344;2023-04-30T06:52:54;94362.88;;;13.26;100.00
12219;BME280;6172;42.646;23.344;2023-04-30T06:55:22;94373.59;;;13.58;100.00
12219;BME280;6172;42.646;23.344;2023-04-30T06:57:49;94366.91;;;15.04;100.00
12219;BME280;6172;42.646;23.344;2023-04-30T07:00:16;94364.09;;;16.68;75.16
12219;BME280;6172;42.646;23.344;2023-04-30T07:02:44;94360.03;;;17.14;68.51
12219;BME280;6172;42.646;23.344;2023-04-30T07:05:12;94365.47;;;16.27;70.28
12219;BME280;6172;42.646;23.344;2023-04-30T07:07:39;94367.09;;;15.49;74.97
12219;BME280;6172;42.646;23.344;2023-04-30T07:10:10;94361.28;;;15.07;79.32
12219;BME280;6172;42.646;23.344;2023-04-30T07:12:37;94361.66;;;15.19;82.72
12219;BME280;6172;42.646;23.344;2023-04-30T07:15:05;94369.22;;;14.41;88.09
12219;BME280;6172;42.646;23.344;2023-04-30T07:17:32;94360.78;;;14.57;88.76
12219;BME280;6172;42.646;23.344;2023-04-30T07:19:59;94371.81;;;13.89;95.39
12219;BME280;6172;42.646;23.344;2023-04-30T07:22:26;94368.97;;;13.80;99.18
12219;BME280;6172;42.646;23.344;2023-04-30T07:24:53;94378.16;;;13.86;99.64
12219;BME280;6172;42.646;23.344;2023-04-30T07:27:22;94371.47;;;13.87;99.32
12219;BME280;6172;42.646;23.344;2023-04-30T07:29:50;94358.25;;;13.73;98.74
12219;BME280;6172;42.646;23.344;2023-04-30T07:32:17;94374.66;;;13.73;97.30
12219;BME280;6172;42.646;23.344;2023-04-30T07:34:44;94370.38;;;13.84;96.57
12219;BME280;6172;42.646;23.344;2023-04-30T07:37:11;94370.72;;;13.74;94.84
12219;BME280;6172;42.646;23.344;2023-04-30T07:39:39;94375.00;;;13.75;94.81
12219;BME280;6172;42.646;23.344;2023-04-30T07:42:05;94372.84;;;14.04;92.83
12219;BME280;6172;42.646;23.344;2023-04-30T07:44:35;94380.75;;;14.02;90.58
12219;BME280;6172;42.646;23.344;2023-04-30T07:47:03;94377.97;;;13.80;93.03
12219;BME280;6172;42.646;23.344;2023-04-30T07:49:30;94376.09;;;13.77;93.18
12219;BME280;6172;42.646;23.344;2023-04-30T07:51:57;94384.63;;;13.92;93.02
12219;BME280;6172;42.646;23.344;2023-04-30T07:54:25;94390.19;;;14.01;91.10
12219;BME280;6172;42.646;23.344;2023-04-30T07:56:52;94379.88;;;14.05;89.83
12219;BME280;6172;42.646;23.344;2023-04-30T07:59:19;94380.16;;;14.07;88.80
12219;BME280;6172;42.646;23.344;2023-04-30T08:01:50;94382.41;;;14.33;85.38
12219;BME280;6172;42.646;23.344;2023-04-30T08:04:16;94370.13;;;14.25;85.18
12219;BME280;6172;42.646;23.344;2023-04-30T08:06:43;94385.91;;;14.34;83.63
12219;BME280;6172;42.646;23.344;2023-04-30T08:09:10;94372.16;;;14.68;83.00
12219;BME280;6172;42.646;23.344;2023-04-30T08:11:37;94385.16;;;14.98;79.61
12219;BME280;6172;42.646;23.344;2023-04-30T08:14:05;94381.09;;;15.12;76.48
12219;BME280;6172;42.646;23.344;2023-04-30T08:16:32;94385.41;;;15.13;75.52
12219;BME280;6172;42.646;23.344;2023-04-30T08:19:01;94380.13;;;15.27;73.65
12219;BME280;6172;42.646;23.344;2023-04-30T08:21:28;94377.78;;;15.47;73.47
12219;BME280;6172;42.646;23.344;2023-04-30T08:23:55;94380.25;;;15.54;71.91
12219;BME280;6172;42.646;23.344;2023-04-30T08:26:24;94382.94;;;15.76;69.41
12219;BME280;6172;42.646;23.344;2023-04-30T08:28:51;94380.13;;;16.06;67.75
12219;BME280;6172;42.646;23.344;2023-04-30T08:31:17;94383.19;;;16.53;64.70
12219;BME280;6172;42.646;23.344;2023-04-30T08:33:44;94383.50;;;16.64;63.64
12219;BME280;6172;42.646;23.344;2023-04-30T08:36:13;94370.81;;;16.58;62.16
12219;BME280;6172;42.646;23.344;2023-04-30T08:38:39;94390.84;;;16.40;61.54
12219;BME280;6172;42.646;23.344;2023-04-30T08:41:10;94387.88;;;15.99;63.44
12219;BME280;6172;42.646;23.344;2023-04-30T08:43:37;94381.31;;;16.05;63.66
12219;BME280;6172;42.646;23.344;2023-04-30T08:46:05;94367.97;;;15.77;65.08
12219;BME280;6172;42.646;23.344;2023-04-30T08:48:32;94380.47;;;15.78;65.78
12219;BME280;6172;42.646;23.344;2023-04-30T08:50:59;94372.56;;;15.80;63.85
12219;BME280;6172;42.646;23.344;2023-04-30T08:53:28;94372.28;;;15.87;63.03
12219;BME280;6172;42.646;23.344;2023-04-30T08:55:55;94365.41;;;15.91;62.98
12219;BME280;6172;42.646;23.344;2023-04-30T08:58:22;94371.38;;;15.90;63.45
12219;BME280;6172;42.646;23.344;2023-04-30T09:00:49;94355.97;;;16.55;59.92
12219;BME280;6172;42.646;23.344;2023-04-30T09:03:16;94359.41;;;17.19;57.81
12219;BME280;6172;42.646;23.344;2023-04-30T09:05:43;94364.22;;;17.84;55.56
12219;BME280;6172;42.646;23.344;2023-04-30T09:08:16;94353.66;;;18.53;52.59
12219;BME280;6172;42.646;23.344;2023-04-30T09:10:44;94358.28;;;18.85;51.37
12219;BME280;6172;42.646;23.344;2023-04-30T09:13:11;94346.19;;;19.40;49.74
12219;BME280;6172;42.646;23.344;2023-04-30T09:15:38;94344.06;;;19.99;47.09
12219;BME280;6172;42.646;23.344;2023-04-30T09:18:10;94344.09;;;20.19;44.26
12219;BME280;6172;42.646;23.344;2023-04-30T09:20:53;94328.63;;;19.93;43.38
12219;BME280;6172;42.646;23.344;2023-04-30T09:23:20;94339.63;;;20.22;42.89
12219;BME280;6172;42.646;23.344;2023-04-30T09:25:48;94325.38;;;19.94;43.16
12219;BME280;6172;42.646;23.344;2023-04-30T09:28:15;94324.72;;;20.19;42.87
12219;BME280;6172;42.646;23.344;2023-04-30T09:30:44;94328.69;;;20.78;41.43
12219;BME280;6172;42.646;23.344;2023-04-30T09:33:11;94317.31;;;20.96;41.36
12219;BME280;6172;42.646;23.344;2023-04-30T09:35:38;94315.44;;;20.42;42.46
12219;BME280;6172;42.646;23.344;2023-04-30T09:38:06;94313.91;;;20.61;41.23
12219;BME280;6172;42.646;23.344;2023-04-30T09:40:37;94303.81;;;20.38;41.13
12219;BME280;6172;42.646;23.344;2023-04-30T09:43:06;94306.84;;;20.80;40.06
12219;BME280;6172;42.646;23.344;2023-04-30T09:45:43;94306.63;;;20.64;40.57
12219;BME280;6172;42.646;23.344;2023-04-30T09:48:14;94310.72;;;21.19;40.27
12219;BME280;6172;42.646;23.344;2023-04-30T09:50:41;94296.06;;;21.13;39.66
12219;BME280;6172;42.646;23.344;2023-04-30T09:53:10;94291.56;;;21.84;38.31
12219;BME280;6172;42.646;23.344;2023-04-30T09:55:42;94304.31;;;21.70;38.76
12219;BME280;6172;42.646;23.344;2023-04-30T09:58:11;94293.47;;;21.66;37.78
12219;BME280;6172;42.646;23.344;2023-04-30T10:00:38;94295.94;;;21.02;38.87
12219;BME280;6172;42.646;23.344;2023-04-30T10:03:07;94300.19;;;20.07;40.39
12219;BME280;6172;42.646;23.344;2023-04-30T10:05:36;94293.38;;;19.53;41.58
12219;BME280;6172;42.646;23.344;2023-04-30T10:08:09;94288.44;;;19.77;42.71
12219;BME280;6172;42.646;23.344;2023-04-30T10:10:42;94280.44;;;20.39;41.61
12219;BME280;6172;42.646;23.344;2023-04-30T10:13:14;94278.50;;;20.45;40.11
12219;BME280;6172;42.646;23.344;2023-04-30T10:15:47;94289.03;;;20.21;40.04
12219;BME280;6172;42.646;23.344;2023-04-30T10:18:18;94278.19;;;19.83;40.34
12219;BME280;6172;42.646;23.344;2023-04-30T10:20:46;94286.97;;;19.82;39.43
12219;BME280;6172;42.646;23.344;2023-04-30T10:23:14;94287.19;;;19.78;39.88
12219;BME280;6172;42.646;23.344;2023-04-30T10:25:42;94291.81;;;19.32;41.40
12219;BME280;6172;42.646;23.344;2023-04-30T10:28:11;94292.00;;;19.14;42.22
12219;BME280;6172;42.646;23.344;2023-04-30T10:30:40;94295.63;;;18.76;43.11
12219;BME280;6172;42.646;23.344;2023-04-30T10:33:14;94303.41;;;18.49;43.42
12219;BME280;6172;42.646;23.344;2023-04-30T10:35:48;94314.22;;;17.91;48.51
12219;BME280;6172;42.646;23.344;2023-04-30T10:38:20;94318.25;;;16.74;55.11
12219;BME280;6172;42.646;23.344;2023-04-30T10:40:49;94326.34;;;16.50;66.82
12219;BME280;6172;42.646;23.344;2023-04-30T10:43:18;94350.59;;;15.40;79.80
12219;BME280;6172;42.646;23.344;2023-04-30T10:45:46;94366.25;;;14.35;100.00
12219;BME280;6172;42.646;23.344;2023-04-30T10:48:15;94358.19;;;13.98;100.00
12219;BME280;6172;42.646;23.344;2023-04-30T10:50:49;94347.81;;;13.80;100.00
12219;BME280;6172;42.646;23.344;2023-04-30T10:53:18;94339.72;;;13.77;100.00
12219;BME280;6172;42.646;23.344;2023-04-30T10:55:49;94346.50;;;14.19;100.00
12219;BME280;6172;42.646;23.344;2023-04-30T10:58:26;94341.47;;;14.82;100.00
12219;BME280;6172;42.646;23.344;2023-04-30T11:01:00;94337.59;;;15.32;100.00
12219;BME280;6172;42.646;23.344;2023-04-30T11:03:28;94318.50;;;15.77;100.00
12219;BME280;6172;42.646;23.344;2023-04-30T11:05:57;94326.94;;;16.00;100.00
12219;BME280;6172;42.646;23.344;2023-04-30T11:08:34;94327.88;;;16.33;100.00
12219;BME280;6172;42.646;23.344;2023-04-30T11:11:02;94323.56;;;16.77;100.00
12219;BME280;6172;42.646;23.344;2023-04-30T11:13:39;94328.47;;;16.82;100.00
12219;BME280;6172;42.646;23.344;2023-04-30T11:16:07;94316.44;;;17.12;84.33
12219;BME280;6172;42.646;23.344;2023-04-30T11:18:40;94317.63;;;17.20;90.80
12219;BME280;6172;42.646;23.344;2023-04-30T11:21:08;94316.38;;;17.30;95.72
12219;BME280;6172;42.646;23.344;2023-04-30T11:23:35;94307.84;;;17.61;93.58
12219;BME280;6172;42.646;23.344;2023-04-30T11:26:02;94311.72;;;18.02;90.61
12219;BME280;6172;42.646;23.344;2023-04-30T11:28:31;94303.72;;;18.04;80.21
12219;BME280;6172;42.646;23.344;2023-04-30T11:31:01;94314.28;;;18.29;77.92
12219;BME280;6172;42.646;23.344;2023-04-30T11:33:30;94308.84;;;18.58;74.82
12219;BME280;6172;42.646;23.344;2023-04-30T11:35:59;94306.66;;;18.62;72.27
12219;BME280;6172;42.646;23.344;2023-04-30T11:38:28;94306.19;;;18.78;68.48
12219;BME280;6172;42.646;23.344;2023-04-30T11:40:55;94312.84;;;18.86;65.81
12219;BME280;6172;42.646;23.344;2023-04-30T11:43:24;94309.31;;;19.00;65.83
12219;BME280;6172;42.646;23.344;2023-04-30T11:46:06;94291.44;;;19.24;57.63
12219;BME280;6172;42.646;23.344;2023-04-30T11:48:35;94301.75;;;19.24;55.54
12219;BME280;6172;42.646;23.344;2023-04-30T11:51:02;94296.19;;;18.95;57.57
12219;BME280;6172;42.646;23.344;2023-04-30T11:53:31;94307.34;;;18.86;56.14
12219;BME280;6172;42.646;23.344;2023-04-30T11:56:01;94314.16;;;17.44;58.66
12219;BME280;6172;42.646;23.344;2023-04-30T11:58:32;94308.25;;;17.92;62.71
12219;BME280;6172;42.646;23.344;2023-04-30T12:00:59;94307.31;;;18.19;60.21
12219;BME280;6172;42.646;23.344;2023-04-30T12:03:28;94306.16;;;18.49;61.70
12219;BME280;6172;42.646;23.344;2023-04-30T12:05:55;94301.81;;;17.72;64.91
12219;BME280;6172;42.646;23.344;2023-04-30T12:08:22;94296.13;;;17.43;68.16
12219;BME280;6172;42.646;23.344;2023-04-30T12:10:49;94304.97;;;17.14;70.43
12219;BME280;6172;42.646;23.344;2023-04-30T12:13:18;94299.25;;;17.92;69.06
12219;BME280;6172;42.646;23.344;2023-04-30T12:15:56;94300.28;;;17.71;64.95
12219;BME280;6172;42.646;23.344;2023-04-30T12:18:24;94299.22;;;17.36;68.08
12219;BME280;6172;42.646;23.344;2023-04-30T12:20:53;94305.06;;;16.60;71.41
12219;BME280;6172;42.646;23.344;2023-04-30T12:23:20;94305.72;;;16.19;76.44
12219;BME280;6172;42.646;23.344;2023-04-30T12:25:47;94310.47;;;16.00;80.96
12219;BME280;6172;42.646;23.344;2023-04-30T12:28:14;94323.22;;;15.67;87.72
12219;BME280;6172;42.646;23.344;2023-04-30T12:30:41;94338.38;;;15.01;92.76
12219;BME280;6172;42.646;23.344;2023-04-30T12:33:09;94352.25;;;14.98;100.00
12219;BME280;6172;42.646;23.344;2023-04-30T12:35:36;94344.97;;;14.61;100.00
12219;BME280;6172;42.646;23.344;2023-04-30T12:38:09;94333.34;;;14.57;100.00
12219;BME280;6172;42.646;23.344;2023-04-30T12:40:35;94328.13;;;14.71;100.00
12219;BME280;6172;42.646;23.344;2023-04-30T12:43:04;94344.56;;;14.07;100.00
12219;BME280;6172;42.646;23.344;2023-04-30T12:45:44;94342.44;;;13.77;100.00
12219;BME280;6172;42.646;23.344;2023-04-30T12:48:13;94343.09;;;13.81;100.00
12219;BME280;6172;42.646;23.344;2023-04-30T12:50:40;94349.78;;;14.14;100.00
12219;BME280;6172;42.646;23.344;2023-04-30T12:53:09;94339.59;;;14.14;100.00
12219;BME280;6172;42.646;23.344;2023-04-30T12:55:35;94347.75;;;14.27;100.00
12219;BME280;6172;42.646;23.344;2023-04-30T12:58:07;94342.06;;;14.34;100.00
12219;BME280;6172;42.646;23.344;2023-04-30T13:00:45;94331.09;;;14.55;100.00
12219;BME280;6172;42.646;23.344;2023-04-30T13:03:14;94338.16;;;14.87;100.00
12219;BME280;6172;42.646;23.344;2023-04-30T13:05:42;94333.28;;;15.22;98.75